sensor_id;sensor_type;location;lat;lon;timestamp;P1;durP1;ratioP1;P2;durP2;ratioP2
31336;SDS011;22846;42.654;23.314;2024-01-15T00:02:17;15.05;;;10.98;;
31336;SDS011;22846;42.654;23.314;2024-01-15T00:04:43;16.30;;;11.95;;
31336;SDS011;22846;42.654;23.314;2024-01-15T00:07:08;15.10;;;11.15;;
31336;SDS011;22846;42.654;23.314;2024-01-15T00:09:34;18.88;;;12.00;;
31336;SDS011;22846;42.654;23.314;2024-01-15T00:12:00;17.35;;;12.25;;
31336;SDS011;22846;42.654;23.314;2024-01-15T00:14:27;16.13;;;11.18;;
31336;SDS011;22846;42.654;23.314;2024-01-15T00:16:52;16.17;;;11.38;;
31336;SDS011;22846;42.654;23.314;2024-01-15T00:19:20;14.95;;;11.20;;
31336;SDS011;22846;42.654;23.314;2024-01-15T00:21:49;15.07;;;11.10;;
31336;SDS011;22846;42.654;23.314;2024-01-15T00:24:15;14.52;;;10.55;;
31336;SDS011;22846;42.654;23.314;2024-01-15T00:26:40;12.05;;;9.13;;
31336;SDS011;22846;42.654;23.314;2024-01-15T00:29:09;13.68;;;8.95;;
31336;SDS011;22846;42.654;23.314;2024-01-15T00:31:34;12.48;;;9.38;;
31336;SDS011;22846;42.654;23.314;2024-01-15T00:34:00;14.10;;;9.95;;
31336;SDS011;22846;42.654;23.314;2024-01-15T00:36:26;14.00;;;9.55;;
31336;SDS011;22846;42.654;23.314;2024-01-15T00:38:52;12.95;;;8.55;;
31336;SDS011;22846;42.654;23.314;2024-01-15T00:41:18;14.13;;;10.55;;
31336;SDS011;22846;42.654;23.314;2024-01-15T00:43:46;13.95;;;10.15;;
31336;SDS011;22846;42.654;23.314;2024-01-15T00:46:14;14.30;;;10.57;;
31336;SDS011;22846;42.654;23.314;2024-01-15T00:48:39;14.48;;;10.43;;
31336;SDS011;22846;42.654;23.314;2024-01-15T00:51:05;14.70;;;10.45;;
31336;SDS011;22846;42.654;23.314;2024-01-15T00:53:30;12.82;;;9.30;;
31336;SDS011;22846;42.654;23.314;2024-01-15T00:55:56;13.13;;;10.30;;
31336;SDS011;22846;42.654;23.314;2024-01-15T00:58:22;14.02;;;10.05;;
31336;SDS011;22846;42.654;23.314;2024-01-15T01:00:47;13.00;;;9.18;;
31336;SDS011;22846;42.654;23.314;2024-01-15T01:03:12;14.38;;;10.50;;
31336;SDS011;22846;42.654;23.314;2024-01-15T01:05:38;13.02;;;9.30;;
31336;SDS011;22846;42.654;23.314;2024-01-15T01:08:03;13.38;;;9.77;;
31336;SDS011;22846;42.654;23.314;2024-01-15T01:10:29;10.27;;;7.32;;
31336;SDS011;22846;42.654;23.314;2024-01-15T01:12:55;10.50;;;8.00;;
31336;SDS011;22846;42.654;23.314;2024-01-15T01:15:39;11.05;;;8.15;;
31336;SDS011;22846;42.654;23.314;2024-01-15T01:18:04;12.50;;;8.20;;
31336;SDS011;22846;42.654;23.314;2024-01-15T01:20:30;9.25;;;7.43;;
31336;SDS011;22846;42.654;23.314;2024-01-15T01:22:55;12.45;;;8.65;;
31336;SDS011;22846;42.654;23.314;2024-01-15T01:25:22;11.90;;;9.00;;
31336;SDS011;22846;42.654;23.314;2024-01-15T01:27:48;13.73;;;9.80;;
31336;SDS011;22846;42.654;23.314;2024-01-15T01:30:13;11.82;;;8.85;;
31336;SDS011;22846;42.654;23.314;2024-01-15T01:32:38;11.93;;;8.60;;
31336;SDS011;22846;42.654;23.314;2024-01-15T01:35:04;12.00;;;8.88;;
31336;SDS011;22846;42.654;23.314;2024-01-15T01:37:30;10.68;;;8.25;;
31336;SDS011;22846;42.654;23.314;2024-01-15T01:39:55;12.70;;;9.52;;
31336;SDS011;22846;42.654;23.314;2024-01-15T01:42:20;11.52;;;8.35;;
31336;SDS011;22846;42.654;23.314;2024-01-15T01:44:46;13.63;;;8.75;;
31336;SDS011;22846;42.654;23.314;2024-01-15T01:47:11;13.32;;;8.68;;
31336;SDS011;22846;42.654;23.314;2024-01-15T01:49:37;11.77;;;8.68;;
31336;SDS011;22846;42.654;23.314;2024-01-15T01:52:04;12.05;;;9.02;;
31336;SDS011;22846;42.654;23.314;2024-01-15T01:54:32;10.82;;;7.55;;
31336;SDS011;22846;42.654;23.314;2024-01-15T01:56:58;10.93;;;7.03;;
31336;SDS011;22846;42.654;23.314;2024-01-15T01:59:25;10.38;;;7.80;;
31336;SDS011;22846;42.654;23.314;2024-01-15T02:01:52;16.77;;;12.05;;
31336;SDS011;22846;42.654;23.314;2024-01-15T02:04:19;16.02;;;10.48;;
31336;SDS011;22846;42.654;23.314;2024-01-15T02:06:45;23.17;;;13.32;;
31336;SDS011;22846;42.654;23.314;2024-01-15T02:09:10;16.50;;;9.88;;
31336;SDS011;22846;42.654;23.314;2024-01-15T02:11:40;15.65;;;9.88;;
31336;SDS011;22846;42.654;23.314;2024-01-15T02:14:06;14.30;;;9.07;;
31336;SDS011;22846;42.654;23.314;2024-01-15T02:16:31;14.20;;;8.23;;
31336;SDS011;22846;42.654;23.314;2024-01-15T02:18:56;12.98;;;7.40;;
31336;SDS011;22846;42.654;23.314;2024-01-15T02:21:22;10.80;;;7.40;;
31336;SDS011;22846;42.654;23.314;2024-01-15T02:23:47;11.23;;;6.68;;
31336;SDS011;22846;42.654;23.314;2024-01-15T02:26:13;9.57;;;6.38;;
31336;SDS011;22846;42.654;23.314;2024-01-15T02:28:39;8.13;;;6.25;;
31336;SDS011;22846;42.654;23.314;2024-01-15T02:31:06;9.05;;;6.03;;
31336;SDS011;22846;42.654;23.314;2024-01-15T02:33:31;9.93;;;6.38;;
31336;SDS011;22846;42.654;23.314;2024-01-15T02:35:57;13.15;;;7.00;;
31336;SDS011;22846;42.654;23.314;2024-01-15T02:38:23;7.55;;;6.13;;
31336;SDS011;22846;42.654;23.314;2024-01-15T02:40:49;9.77;;;6.20;;
31336;SDS011;22846;42.654;23.314;2024-01-15T02:43:15;9.05;;;5.70;;
31336;SDS011;22846;42.654;23.314;2024-01-15T02:45:40;7.70;;;5.43;;
31336;SDS011;22846;42.654;23.314;2024-01-15T02:48:06;9.27;;;6.63;;
31336;SDS011;22846;42.654;23.314;2024-01-15T02:50:31;8.10;;;6.05;;
31336;SDS011;22846;42.654;23.314;2024-01-15T02:52:56;8.38;;;5.65;;
31336;SDS011;22846;42.654;23.314;2024-01-15T02:55:22;8.98;;;5.97;;
31336;SDS011;22846;42.654;23.314;2024-01-15T02:57:47;8.85;;;5.75;;
31336;SDS011;22846;42.654;23.314;2024-01-15T03:00:13;8.55;;;5.35;;
31336;SDS011;22846;42.654;23.314;2024-01-15T03:02:39;7.75;;;5.53;;
31336;SDS011;22846;42.654;23.314;2024-01-15T03:05:06;8.63;;;6.18;;
31336;SDS011;22846;42.654;23.314;2024-01-15T03:07:32;8.98;;;6.40;;
31336;SDS011;22846;42.654;23.314;2024-01-15T03:09:58;6.95;;;5.22;;
31336;SDS011;22846;42.654;23.314;2024-01-15T03:12:24;9.35;;;6.43;;
31336;SDS011;22846;42.654;23.314;2024-01-15T03:14:49;9.98;;;6.65;;
31336;SDS011;22846;42.654;23.314;2024-01-15T03:17:14;8.90;;;6.32;;
31336;SDS011;22846;42.654;23.314;2024-01-15T03:19:40;9.00;;;6.15;;
31336;SDS011;22846;42.654;23.314;2024-01-15T03:22:05;8.70;;;6.00;;
31336;SDS011;22846;42.654;23.314;2024-01-15T03:24:34;7.90;;;5.78;;
31336;SDS011;22846;42.654;23.314;2024-01-15T03:27:00;8.00;;;5.57;;
31336;SDS011;22846;42.654;23.314;2024-01-15T03:29:25;7.72;;;5.88;;
31336;SDS011;22846;42.654;23.314;2024-01-15T03:31:51;8.73;;;5.72;;
31336;SDS011;22846;42.654;23.314;2024-01-15T03:34:17;7.55;;;5.78;;
31336;SDS011;22846;42.654;23.314;2024-01-15T03:36:43;9.18;;;6.00;;
31336;SDS011;22846;42.654;23.314;2024-01-15T03:39:08;6.93;;;5.20;;
31336;SDS011;22846;42.654;23.314;2024-01-15T03:41:34;7.40;;;5.53;;
31336;SDS011;22846;42.654;23.314;2024-01-15T03:43:59;7.05;;;5.32;;
31336;SDS011;22846;42.654;23.314;2024-01-15T03:46:24;7.45;;;5.70;;
31336;SDS011;22846;42.654;23.314;2024-01-15T03:48:50;7.28;;;5.65;;
31336;SDS011;22846;42.654;23.314;2024-01-15T03:51:17;7.07;;;5.20;;
31336;SDS011;22846;42.654;23.314;2024-01-15T03:53:42;8.68;;;5.85;;
31336;SDS011;22846;42.654;23.314;2024-01-15T03:56:08;7.78;;;5.20;;
31336;SDS011;22846;42.654;23.314;2024-01-15T03:58:33;7.97;;;5.88;;
31336;SDS011;22846;42.654;23.314;2024-01-15T04:00:59;8.07;;;5.63;;
31336;SDS011;22846;42.654;23.314;2024-01-15T04:03:24;7.10;;;5.38;;
31336;SDS011;22846;42.654;23.314;2024-01-15T04:05:49;8.68;;;5.75;;
31336;SDS011;22846;42.654;23.314;2024-01-15T04:08:15;7.32;;;5.13;;
31336;SDS011;22846;42.654;23.314;2024-01-15T04:10:40;6.88;;;5.03;;
31336;SDS011;22846;42.654;23.314;2024-01-15T04:13:06;7.65;;;5.30;;
31336;SDS011;22846;42.654;23.314;2024-01-15T04:15:32;7.90;;;5.45;;
31336;SDS011;22846;42.654;23.314;2024-01-15T04:17:57;6.93;;;5.07;;
31336;SDS011;22846;42.654;23.314;2024-01-15T04:20:22;7.35;;;5.30;;
31336;SDS011;22846;42.654;23.314;2024-01-15T04:22:48;7.88;;;5.50;;
31336;SDS011;22846;42.654;23.314;2024-01-15T04:25:13;8.07;;;5.28;;
31336;SDS011;22846;42.654;23.314;2024-01-15T04:27:39;6.85;;;5.10;;
31336;SDS011;22846;42.654;23.314;2024-01-15T04:30:04;7.13;;;5.28;;
31336;SDS011;22846;42.654;23.314;2024-01-15T04:32:30;7.38;;;5.60;;
31336;SDS011;22846;42.654;23.314;2024-01-15T04:34:56;7.35;;;5.20;;
31336;SDS011;22846;42.654;23.314;2024-01-15T04:37:21;6.85;;;5.38;;
31336;SDS011;22846;42.654;23.314;2024-01-15T04:39:46;6.38;;;5.10;;
31336;SDS011;22846;42.654;23.314;2024-01-15T04:42:12;6.07;;;4.65;;
31336;SDS011;22846;42.654;23.314;2024-01-15T04:44:37;6.53;;;4.60;;
31336;SDS011;22846;42.654;23.314;2024-01-15T04:47:03;5.75;;;4.40;;
31336;SDS011;22846;42.654;23.314;2024-01-15T04:49:28;5.28;;;4.07;;
31336;SDS011;22846;42.654;23.314;2024-01-15T04:51:54;7.03;;;4.60;;
31336;SDS011;22846;42.654;23.314;2024-01-15T04:54:20;7.60;;;5.95;;
31336;SDS011;22846;42.654;23.314;2024-01-15T04:56:45;7.68;;;5.75;;
31336;SDS011;22846;42.654;23.314;2024-01-15T04:59:11;8.10;;;5.32;;
31336;SDS011;22846;42.654;23.314;2024-01-15T05:01:37;6.95;;;5.38;;
31336;SDS011;22846;42.654;23.314;2024-01-15T05:04:03;9.80;;;7.03;;
31336;SDS011;22846;42.654;23.314;2024-01-15T05:06:28;13.13;;;7.65;;
31336;SDS011;22846;42.654;23.314;2024-01-15T05:08:54;8.40;;;6.32;;
31336;SDS011;22846;42.654;23.314;2024-01-15T05:11:19;7.93;;;6.57;;
31336;SDS011;22846;42.654;23.314;2024-01-15T05:13:45;10.75;;;6.15;;
31336;SDS011;22846;42.654;23.314;2024-01-15T05:16:10;8.30;;;5.97;;
31336;SDS011;22846;42.654;23.314;2024-01-15T05:18:36;8.73;;;6.05;;
31336;SDS011;22846;42.654;23.314;2024-01-15T05:21:02;9.40;;;5.60;;
31336;SDS011;22846;42.654;23.314;2024-01-15T05:23:28;7.55;;;5.78;;
31336;SDS011;22846;42.654;23.314;2024-01-15T05:25:53;12.65;;;5.97;;
31336;SDS011;22846;42.654;23.314;2024-01-15T05:28:19;6.45;;;4.90;;
31336;SDS011;22846;42.654;23.314;2024-01-15T05:30:45;12.00;;;6.75;;
31336;SDS011;22846;42.654;23.314;2024-01-15T05:33:10;14.32;;;7.05;;
31336;SDS011;22846;42.654;23.314;2024-01-15T05:35:36;15.23;;;6.80;;
31336;SDS011;22846;42.654;23.314;2024-01-15T05:38:01;20.00;;;9.75;;
31336;SDS011;22846;42.654;23.314;2024-01-15T05:40:27;42.25;;;14.30;;
31336;SDS011;22846;42.654;23.314;2024-01-15T05:42:53;33.05;;;14.50;;
31336;SDS011;22846;42.654;23.314;2024-01-15T05:45:18;35.85;;;13.35;;
31336;SDS011;22846;42.654;23.314;2024-01-15T05:47:44;30.77;;;14.50;;
31336;SDS011;22846;42.654;23.314;2024-01-15T05:50:09;43.25;;;13.55;;
31336;SDS011;22846;42.654;23.314;2024-01-15T05:52:35;79.93;;;43.78;;
31336;SDS011;22846;42.654;23.314;2024-01-15T05:55:01;61.88;;;39.53;;
31336;SDS011;22846;42.654;23.314;2024-01-15T05:57:26;55.88;;;33.47;;
31336;SDS011;22846;42.654;23.314;2024-01-15T05:59:53;44.15;;;24.65;;
31336;SDS011;22846;42.654;23.314;2024-01-15T06:02:18;53.55;;;25.88;;
31336;SDS011;22846;42.654;23.314;2024-01-15T06:04:44;35.28;;;22.65;;
31336;SDS011;22846;42.654;23.314;2024-01-15T06:07:09;30.98;;;20.30;;
31336;SDS011;22846;42.654;23.314;2024-01-15T06:09:35;29.50;;;18.85;;
31336;SDS011;22846;42.654;23.314;2024-01-15T06:12:00;29.40;;;16.92;;
31336;SDS011;22846;42.654;23.314;2024-01-15T06:14:25;24.50;;;14.88;;
31336;SDS011;22846;42.654;23.314;2024-01-15T06:16:51;21.73;;;14.40;;
31336;SDS011;22846;42.654;23.314;2024-01-15T06:19:17;20.65;;;13.25;;
31336;SDS011;22846;42.654;23.314;2024-01-15T06:21:42;17.23;;;12.80;;
31336;SDS011;22846;42.654;23.314;2024-01-15T06:24:08;18.23;;;11.77;;
31336;SDS011;22846;42.654;23.314;2024-01-15T06:26:35;20.27;;;12.23;;
31336;SDS011;22846;42.654;23.314;2024-01-15T06:29:01;16.05;;;11.20;;
31336;SDS011;22846;42.654;23.314;2024-01-15T06:31:26;15.80;;;10.68;;
31336;SDS011;22846;42.654;23.314;2024-01-15T06:33:51;18.27;;;11.43;;
31336;SDS011;22846;42.654;23.314;2024-01-15T06:36:17;18.17;;;11.15;;
31336;SDS011;22846;42.654;23.314;2024-01-15T06:38:45;13.93;;;10.40;;
31336;SDS011;22846;42.654;23.314;2024-01-15T06:41:11;16.88;;;10.38;;
31336;SDS011;22846;42.654;23.314;2024-01-15T06:43:36;12.98;;;9.65;;
31336;SDS011;22846;42.654;23.314;2024-01-15T06:46:01;13.32;;;9.40;;
31336;SDS011;22846;42.654;23.314;2024-01-15T06:48:27;13.70;;;10.00;;
31336;SDS011;22846;42.654;23.314;2024-01-15T06:50:52;13.38;;;9.60;;
31336;SDS011;22846;42.654;23.314;2024-01-15T06:53:18;13.77;;;9.20;;
31336;SDS011;22846;42.654;23.314;2024-01-15T06:55:43;12.90;;;9.23;;
31336;SDS011;22846;42.654;23.314;2024-01-15T06:58:09;13.75;;;9.43;;
31336;SDS011;22846;42.654;23.314;2024-01-15T07:00:34;13.95;;;9.30;;
31336;SDS011;22846;42.654;23.314;2024-01-15T07:03:00;14.60;;;9.48;;
31336;SDS011;22846;42.654;23.314;2024-01-15T07:05:25;12.02;;;8.90;;
31336;SDS011;22846;42.654;23.314;2024-01-15T07:07:51;13.25;;;9.23;;
31336;SDS011;22846;42.654;23.314;2024-01-15T07:10:16;15.35;;;9.60;;
31336;SDS011;22846;42.654;23.314;2024-01-15T07:12:42;17.23;;;8.95;;
31336;SDS011;22846;42.654;23.314;2024-01-15T07:15:08;14.40;;;9.30;;
31336;SDS011;22846;42.654;23.314;2024-01-15T07:17:34;16.90;;;9.02;;
31336;SDS011;22846;42.654;23.314;2024-01-15T07:19:59;15.25;;;9.52;;
31336;SDS011;22846;42.654;23.314;2024-01-15T07:22:26;11.73;;;8.45;;
31336;SDS011;22846;42.654;23.314;2024-01-15T07:24:52;13.48;;;9.48;;
31336;SDS011;22846;42.654;23.314;2024-01-15T07:27:17;15.13;;;8.93;;
31336;SDS011;22846;42.654;23.314;2024-01-15T07:29:42;12.88;;;8.90;;
31336;SDS011;22846;42.654;23.314;2024-01-15T07:32:08;12.95;;;8.80;;
31336;SDS011;22846;42.654;23.314;2024-01-15T07:34:34;13.93;;;8.15;;
31336;SDS011;22846;42.654;23.314;2024-01-15T07:37:00;11.73;;;8.65;;
31336;SDS011;22846;42.654;23.314;2024-01-15T07:39:25;13.30;;;8.18;;
31336;SDS011;22846;42.654;23.314;2024-01-15T07:41:51;11.27;;;7.72;;
31336;SDS011;22846;42.654;23.314;2024-01-15T07:44:17;10.05;;;7.85;;
31336;SDS011;22846;42.654;23.314;2024-01-15T07:46:46;13.23;;;8.30;;
31336;SDS011;22846;42.654;23.314;2024-01-15T07:49:12;13.40;;;8.65;;
31336;SDS011;22846;42.654;23.314;2024-01-15T07:51:37;14.02;;;8.82;;
31336;SDS011;22846;42.654;23.314;2024-01-15T07:54:05;14.48;;;8.13;;
31336;SDS011;22846;42.654;23.314;2024-01-15T07:56:31;13.32;;;8.27;;
31336;SDS011;22846;42.654;23.314;2024-01-15T07:58:56;11.15;;;7.82;;
31336;SDS011;22846;42.654;23.314;2024-01-15T08:01:22;11.57;;;8.27;;
31336;SDS011;22846;42.654;23.314;2024-01-15T08:03:47;11.95;;;8.25;;
31336;SDS011;22846;42.654;23.314;2024-01-15T08:06:13;10.43;;;7.45;;
31336;SDS011;22846;42.654;23.314;2024-01-15T08:08:38;10.80;;;7.82;;
31336;SDS011;22846;42.654;23.314;2024-01-15T08:11:04;12.63;;;7.65;;
31336;SDS011;22846;42.654;23.314;2024-01-15T08:13:30;13.13;;;7.82;;
31336;SDS011;22846;42.654;23.314;2024-01-15T08:15:55;12.23;;;8.30;;
31336;SDS011;22846;42.654;23.314;2024-01-15T08:18:21;21.30;;;8.90;;
31336;SDS011;22846;42.654;23.314;2024-01-15T08:20:46;10.65;;;7.97;;
31336;SDS011;22846;42.654;23.314;2024-01-15T08:23:12;13.80;;;8.25;;
31336;SDS011;22846;42.654;23.314;2024-01-15T08:25:37;12.48;;;8.50;;
31336;SDS011;22846;42.654;23.314;2024-01-15T08:28:03;11.88;;;8.07;;
31336;SDS011;22846;42.654;23.314;2024-01-15T08:30:28;13.45;;;8.65;;
31336;SDS011;22846;42.654;23.314;2024-01-15T08:32:54;15.35;;;7.90;;
31336;SDS011;22846;42.654;23.314;2024-01-15T08:35:20;13.88;;;8.65;;
31336;SDS011;22846;42.654;23.314;2024-01-15T08:37:50;11.05;;;8.13;;
31336;SDS011;22846;42.654;23.314;2024-01-15T08:40:16;11.10;;;8.48;;
31336;SDS011;22846;42.654;23.314;2024-01-15T08:42:42;12.20;;;8.25;;
31336;SDS011;22846;42.654;23.314;2024-01-15T08:45:08;11.75;;;8.25;;
31336;SDS011;22846;42.654;23.314;2024-01-15T08:47:34;10.77;;;7.50;;
31336;SDS011;22846;42.654;23.314;2024-01-15T08:50:00;15.73;;;8.50;;
31336;SDS011;22846;42.654;23.314;2024-01-15T08:52:26;12.10;;;8.45;;
31336;SDS011;22846;42.654;23.314;2024-01-15T08:54:51;11.70;;;8.43;;
31336;SDS011;22846;42.654;23.314;2024-01-15T08:57:17;12.82;;;7.95;;
31336;SDS011;22846;42.654;23.314;2024-01-15T08:59:42;12.75;;;8.02;;
31336;SDS011;22846;42.654;23.314;2024-01-15T09:02:08;14.75;;;8.23;;
31336;SDS011;22846;42.654;23.314;2024-01-15T09:04:33;10.93;;;7.93;;
31336;SDS011;22846;42.654;23.314;2024-01-15T09:06:59;11.23;;;7.85;;
31336;SDS011;22846;42.654;23.314;2024-01-15T09:09:24;10.68;;;7.43;;
31336;SDS011;22846;42.654;23.314;2024-01-15T09:11:50;11.30;;;7.40;;
31336;SDS011;22846;42.654;23.314;2024-01-15T09:14:16;12.27;;;7.82;;
31336;SDS011;22846;42.654;23.314;2024-01-15T09:16:42;9.18;;;7.10;;
31336;SDS011;22846;42.654;23.314;2024-01-15T09:19:08;16.50;;;7.50;;
31336;SDS011;22846;42.654;23.314;2024-01-15T09:21:33;10.30;;;7.47;;
31336;SDS011;22846;42.654;23.314;2024-01-15T09:23:59;13.65;;;8.18;;
31336;SDS011;22846;42.654;23.314;2024-01-15T09:26:24;12.77;;;7.90;;
31336;SDS011;22846;42.654;23.314;2024-01-15T09:28:50;10.13;;;7.45;;
31336;SDS011;22846;42.654;23.314;2024-01-15T09:31:15;13.05;;;7.72;;
31336;SDS011;22846;42.654;23.314;2024-01-15T09:33:42;10.55;;;7.15;;
31336;SDS011;22846;42.654;23.314;2024-01-15T09:36:08;10.35;;;7.05;;
31336;SDS011;22846;42.654;23.314;2024-01-15T09:38:33;9.85;;;6.82;;
31336;SDS011;22846;42.654;23.314;2024-01-15T09:40:59;11.52;;;7.25;;
31336;SDS011;22846;42.654;23.314;2024-01-15T09:43:25;11.65;;;7.10;;
31336;SDS011;22846;42.654;23.314;2024-01-15T09:45:51;13.82;;;7.18;;
31336;SDS011;22846;42.654;23.314;2024-01-15T09:48:18;15.65;;;7.30;;
31336;SDS011;22846;42.654;23.314;2024-01-15T09:50:44;14.32;;;7.82;;
31336;SDS011;22846;42.654;23.314;2024-01-15T09:53:10;16.50;;;8.00;;
31336;SDS011;22846;42.654;23.314;2024-01-15T09:55:36;12.05;;;7.38;;
31336;SDS011;22846;42.654;23.314;2024-01-15T09:58:03;10.65;;;7.57;;
31336;SDS011;22846;42.654;23.314;2024-01-15T10:00:29;13.35;;;7.68;;
31336;SDS011;22846;42.654;23.314;2024-01-15T10:02:56;13.88;;;8.10;;
31336;SDS011;22846;42.654;23.314;2024-01-15T10:05:22;15.90;;;8.00;;
31336;SDS011;22846;42.654;23.314;2024-01-15T10:07:47;13.07;;;7.65;;
31336;SDS011;22846;42.654;23.314;2024-01-15T10:10:15;10.48;;;7.50;;
31336;SDS011;22846;42.654;23.314;2024-01-15T10:12:40;12.18;;;7.95;;
31336;SDS011;22846;42.654;23.314;2024-01-15T10:15:09;12.43;;;7.97;;
31336;SDS011;22846;42.654;23.314;2024-01-15T10:17:36;11.90;;;7.25;;
31336;SDS011;22846;42.654;23.314;2024-01-15T10:20:11;11.63;;;7.90;;
31336;SDS011;22846;42.654;23.314;2024-01-15T10:22:43;15.00;;;8.37;;
31336;SDS011;22846;42.654;23.314;2024-01-15T10:25:12;14.05;;;7.95;;
31336;SDS011;22846;42.654;23.314;2024-01-15T10:27:39;14.15;;;7.32;;
31336;SDS011;22846;42.654;23.314;2024-01-15T10:30:06;15.20;;;9.05;;
31336;SDS011;22846;42.654;23.314;2024-01-15T10:32:42;16.17;;;8.05;;
31336;SDS011;22846;42.654;23.314;2024-01-15T10:35:23;13.07;;;8.30;;
31336;SDS011;22846;42.654;23.314;2024-01-15T10:37:52;12.07;;;7.53;;
31336;SDS011;22846;42.654;23.314;2024-01-15T10:40:18;12.77;;;7.78;;
31336;SDS011;22846;42.654;23.314;2024-01-15T10:42:44;10.15;;;7.80;;
31336;SDS011;22846;42.654;23.314;2024-01-15T10:45:09;10.40;;;7.65;;
31336;SDS011;22846;42.654;23.314;2024-01-15T10:47:35;12.65;;;7.97;;
31336;SDS011;22846;42.654;23.314;2024-01-15T10:50:01;11.88;;;7.88;;
31336;SDS011;22846;42.654;23.314;2024-01-15T10:52:27;11.32;;;7.35;;
31336;SDS011;22846;42.654;23.314;2024-01-15T10:54:54;12.07;;;8.13;;
31336;SDS011;22846;42.654;23.314;2024-01-15T10:57:20;10.63;;;7.97;;
31336;SDS011;22846;42.654;23.314;2024-01-15T10:59:47;10.77;;;8.10;;
31336;SDS011;22846;42.654;23.314;2024-01-15T11:02:13;13.10;;;7.65;;
31336;SDS011;22846;42.654;23.314;2024-01-15T11:04:40;13.05;;;7.80;;
31336;SDS011;22846;42.654;23.314;2024-01-15T11:07:05;10.13;;;7.43;;
31336;SDS011;22846;42.654;23.314;2024-01-15T11:09:31;14.63;;;7.85;;
31336;SDS011;22846;42.654;23.314;2024-01-15T11:12:07;11.00;;;8.00;;
31336;SDS011;22846;42.654;23.314;2024-01-15T11:14:47;9.65;;;7.50;;
31336;SDS011;22846;42.654;23.314;2024-01-15T11:17:14;13.55;;;8.00;;
31336;SDS011;22846;42.654;23.314;2024-01-15T11:19:47;12.68;;;7.80;;
31336;SDS011;22846;42.654;23.314;2024-01-15T11:24:56;13.15;;;7.82;;
31336;SDS011;22846;42.654;23.314;2024-01-15T11:30:18;17.58;;;7.57;;
31336;SDS011;22846;42.654;23.314;2024-01-15T11:32:47;10.65;;;7.03;;
31336;SDS011;22846;42.654;23.314;2024-01-15T11:35:13;14.27;;;7.45;;
31336;SDS011;22846;42.654;23.314;2024-01-15T11:40:21;14.73;;;7.97;;
31336;SDS011;22846;42.654;23.314;2024-01-15T11:42:48;39.90;;;22.33;;
31336;SDS011;22846;42.654;23.314;2024-01-15T11:45:20;24.83;;;10.20;;
31336;SDS011;22846;42.654;23.314;2024-01-15T11:50:34;17.45;;;9.07;;
31336;SDS011;22846;42.654;23.314;2024-01-15T11:53:03;14.13;;;8.43;;
31336;SDS011;22846;42.654;23.314;2024-01-15T11:55:34;13.98;;;8.38;;
31336;SDS011;22846;42.654;23.314;2024-01-15T11:58:01;52.22;;;16.77;;
31336;SDS011;22846;42.654;23.314;2024-01-15T12:00:32;73.50;;;20.65;;
31336;SDS011;22846;42.654;23.314;2024-01-15T12:02:58;52.28;;;16.48;;
31336;SDS011;22846;42.654;23.314;2024-01-15T12:05:23;41.33;;;13.80;;
31336;SDS011;22846;42.654;23.314;2024-01-15T12:07:49;38.47;;;14.32;;
31336;SDS011;22846;42.654;23.314;2024-01-15T12:15:38;38.22;;;11.40;;
31336;SDS011;22846;42.654;23.314;2024-01-15T12:18:08;33.72;;;11.43;;
31336;SDS011;22846;42.654;23.314;2024-01-15T12:20:34;33.35;;;11.77;;
31336;SDS011;22846;42.654;23.314;2024-01-15T12:23:00;28.20;;;11.80;;
31336;SDS011;22846;42.654;23.314;2024-01-15T12:25:28;29.83;;;12.23;;
31336;SDS011;22846;42.654;23.314;2024-01-15T12:27:55;27.25;;;10.73;;
31336;SDS011;22846;42.654;23.314;2024-01-15T12:30:21;25.50;;;12.25;;
31336;SDS011;22846;42.654;23.314;2024-01-15T12:32:47;29.23;;;13.15;;
31336;SDS011;22846;42.654;23.314;2024-01-15T12:35:12;28.10;;;12.48;;
31336;SDS011;22846;42.654;23.314;2024-01-15T12:37:39;28.65;;;12.40;;
31336;SDS011;22846;42.654;23.314;2024-01-15T12:40:06;30.98;;;12.57;;
31336;SDS011;22846;42.654;23.314;2024-01-15T12:42:33;23.90;;;11.90;;
31336;SDS011;22846;42.654;23.314;2024-01-15T12:44:59;25.63;;;12.18;;
31336;SDS011;22846;42.654;23.314;2024-01-15T12:47:25;23.60;;;11.57;;
31336;SDS011;22846;42.654;23.314;2024-01-15T12:49:54;24.13;;;11.32;;
31336;SDS011;22846;42.654;23.314;2024-01-15T12:52:20;26.10;;;10.95;;
31336;SDS011;22846;42.654;23.314;2024-01-15T12:54:48;23.75;;;11.13;;
31336;SDS011;22846;42.654;23.314;2024-01-15T12:57:15;21.30;;;10.40;;
31336;SDS011;22846;42.654;23.314;2024-01-15T12:59:41;24.00;;;11.27;;
31336;SDS011;22846;42.654;23.314;2024-01-15T13:02:06;20.80;;;10.90;;
31336;SDS011;22846;42.654;23.314;2024-01-15T13:04:32;19.40;;;10.38;;
31336;SDS011;22846;42.654;23.314;2024-01-15T13:06:57;18.27;;;9.43;;
31336;SDS011;22846;42.654;23.314;2024-01-15T13:09:23;19.27;;;9.48;;
31336;SDS011;22846;42.654;23.314;2024-01-15T13:11:48;17.67;;;9.45;;
31336;SDS011;22846;42.654;23.314;2024-01-15T13:14:14;17.27;;;8.90;;
31336;SDS011;22846;42.654;23.314;2024-01-15T13:16:40;17.13;;;8.95;;
31336;SDS011;22846;42.654;23.314;2024-01-15T13:19:07;16.98;;;8.77;;
31336;SDS011;22846;42.654;23.314;2024-01-15T13:21:33;18.13;;;8.50;;
31336;SDS011;22846;42.654;23.314;2024-01-15T13:23:59;17.13;;;8.20;;
31336;SDS011;22846;42.654;23.314;2024-01-15T13:26:24;15.73;;;8.48;;
31336;SDS011;22846;42.654;23.314;2024-01-15T13:28:50;13.43;;;8.40;;
31336;SDS011;22846;42.654;23.314;2024-01-15T13:31:16;12.15;;;7.85;;
31336;SDS011;22846;42.654;23.314;2024-01-15T13:33:41;12.90;;;8.52;;
31336;SDS011;22846;42.654;23.314;2024-01-15T13:36:07;16.02;;;8.40;;
31336;SDS011;22846;42.654;23.314;2024-01-15T13:38:35;13.88;;;8.48;;
31336;SDS011;22846;42.654;23.314;2024-01-15T13:41:04;16.20;;;9.00;;
31336;SDS011;22846;42.654;23.314;2024-01-15T13:43:31;22.65;;;9.13;;
31336;SDS011;22846;42.654;23.314;2024-01-15T13:45:57;14.30;;;7.60;;
31336;SDS011;22846;42.654;23.314;2024-01-15T13:48:22;20.75;;;9.38;;
31336;SDS011;22846;42.654;23.314;2024-01-15T13:50:48;18.02;;;8.95;;
31336;SDS011;22846;42.654;23.314;2024-01-15T13:53:14;16.60;;;8.55;;
31336;SDS011;22846;42.654;23.314;2024-01-15T13:55:40;15.48;;;7.90;;
31336;SDS011;22846;42.654;23.314;2024-01-15T13:58:05;12.77;;;7.05;;
31336;SDS011;22846;42.654;23.314;2024-01-15T14:00:31;14.60;;;8.10;;
31336;SDS011;22846;42.654;23.314;2024-01-15T14:02:57;13.15;;;7.70;;
31336;SDS011;22846;42.654;23.314;2024-01-15T14:05:23;15.05;;;7.57;;
31336;SDS011;22846;42.654;23.314;2024-01-15T14:07:48;11.50;;;7.50;;
31336;SDS011;22846;42.654;23.314;2024-01-15T14:10:15;11.05;;;6.97;;
31336;SDS011;22846;42.654;23.314;2024-01-15T14:12:41;12.70;;;7.28;;
31336;SDS011;22846;42.654;23.314;2024-01-15T14:15:06;11.13;;;7.45;;
31336;SDS011;22846;42.654;23.314;2024-01-15T14:17:32;10.18;;;6.32;;
31336;SDS011;22846;42.654;23.314;2024-01-15T14:19:57;13.00;;;7.13;;
31336;SDS011;22846;42.654;23.314;2024-01-15T14:22:23;10.80;;;6.38;;
31336;SDS011;22846;42.654;23.314;2024-01-15T14:24:48;10.98;;;6.50;;
31336;SDS011;22846;42.654;23.314;2024-01-15T14:27:14;9.50;;;6.50;;
31336;SDS011;22846;42.654;23.314;2024-01-15T14:29:40;10.63;;;6.40;;
31336;SDS011;22846;42.654;23.314;2024-01-15T14:32:06;10.80;;;6.72;;